Time;durP1;ratioP1;P1;durP2;ratioP2;P2;SDS_P1;SDS_P2;PMS_P1;PMS_P2;Temp;Humidity;BMP_temperature;BMP_pressure;BME280_temperature;BME280_humidity;BME280_pressure;Samples;Min_cycle;Max_cycle;Signal;HPM_P1;HPM_P2
2021/12/28 00:00:31;;;;;;;6.33;3.17;;;13.30;78.70;;;-142.21;100.00;112049.66;5089549;28;20451;-79
2021/12/28 00:03:00;;;;;;;3.87;2.47;;;13.20;79.10;;;-142.21;100.00;112049.66;5084699;28;20447;-79
2021/12/28 00:05:28;;;;;;;5.93;3.23;;;13.20;78.90;;;-142.21;100.00;112049.66;5075452;28;20871;-77
2021/12/28 00:07:56;;;;;;;5.43;2.93;;;13.20;79.00;;;-142.21;100.00;112049.66;5074340;28;20983;-77
2021/12/28 00:10:23;;;;;;;5.20;3.20;;;13.20;78.90;;;-142.21;100.00;112049.66;5074824;28;20483;-79
2021/12/28 00:12:51;;;;;;;5.77;3.47;;;13.00;78.60;;;-142.21;100.00;112049.66;5075022;28;20482;-79
2021/12/28 00:15:33;;;;;;;10.33;5.07;;;13.00;79.00;;;-142.21;100.00;112049.66;5074763;28;20440;-77
2021/12/28 00:18:03;;;;;;;10.20;3.67;;;12.80;79.20;;;-142.21;100.00;112049.66;5082063;28;20465;-78
2021/12/28 00:20:36;;;;;;;9.60;3.17;;;12.80;79.50;;;-142.21;100.00;112049.66;5094476;28;20446;-79
2021/12/28 00:23:10;;;;;;;6.90;3.10;;;12.70;79.10;;;-142.21;100.00;112049.66;5094589;28;20462;-78
2021/12/28 00:25:37;;;;;;;7.40;3.00;;;12.60;78.80;;;-142.21;100.00;112049.66;5094959;28;20502;-79
2021/12/28 00:28:05;;;;;;;5.87;2.83;;;12.50;78.80;;;-142.21;100.00;112049.66;5094559;28;20538;-79
2021/12/28 00:30:33;;;;;;;6.63;2.13;;;12.50;78.60;;;-142.21;100.00;112049.66;5094870;28;20953;-79
2021/12/28 00:33:01;;;;;;;5.47;2.30;;;12.40;79.20;;;-142.21;100.00;112049.66;5094725;28;20442;-77
2021/12/28 00:35:33;;;;;;;6.47;2.17;;;12.30;79.20;;;-142.21;100.00;112049.66;5093268;28;20970;-79
2021/12/28 00:38:01;;;;;;;4.90;2.30;;;12.30;79.80;;;-142.21;100.00;112049.66;5101487;28;20481;-78
2021/12/28 00:40:29;;;;;;;6.00;2.83;;;12.20;79.80;;;-142.21;100.00;112049.66;5114374;28;20493;-78
2021/12/28 00:42:57;;;;;;;5.87;2.30;;;12.10;79.80;;;-142.21;100.00;112049.66;5115113;28;20525;-78
2021/12/28 00:45:24;;;;;;;4.90;1.93;;;12.10;79.50;;;-142.21;100.00;112049.66;5114311;28;20572;-78
2021/12/28 00:47:52;;;;;;;5.10;2.20;;;12.00;79.70;;;-142.21;100.00;112049.66;5114706;28;20441;-79
2021/12/28 00:50:21;;;;;;;4.20;2.20;;;12.10;79.70;;;-142.21;100.00;112049.66;5113896;28;20544;-78
2021/12/28 00:52:50;;;;;;;5.10;2.20;;;12.10;79.70;;;-142.21;100.00;112049.66;5114666;28;20438;-78
2021/12/28 00:55:20;;;;;;;5.67;2.63;;;12.00;79.10;;;-142.21;100.00;112049.66;5115106;28;20441;-78
2021/12/28 00:57:47;;;;;;;7.73;2.27;;;12.00;79.50;;;-142.21;100.00;112049.66;5110516;28;20454;-78
2021/12/28 01:00:18;;;;;;;4.07;2.20;;;12.00;78.90;;;-142.21;100.00;112049.66;5093899;28;20454;-79
2021/12/28 01:02:46;;;;;;;6.03;2.37;;;12.00;78.40;;;-142.21;100.00;112049.66;5093346;28;20910;-78
2021/12/28 01:05:14;;;;;;;9.33;2.80;;;12.00;78.20;;;-142.21;100.00;112049.66;5104028;28;20568;-78
2021/12/28 01:07:41;;;;;;;5.30;2.60;;;12.00;78.20;;;-142.21;100.00;112049.66;5113749;28;20481;-78
2021/12/28 01:10:15;;;;;;;3.70;2.37;;;12.00;77.70;;;-142.21;100.00;112049.66;5114409;28;20469;-78
2021/12/28 01:12:52;;;;;;;3.73;2.57;;;12.00;77.50;;;-142.21;100.00;112049.66;5113119;28;20446;-79
2021/12/28 01:15:22;;;;;;;7.23;3.13;;;12.00;77.80;;;-142.21;100.00;112049.66;5093587;28;20517;-79
2021/12/28 01:17:50;;;;;;;4.20;2.40;;;12.00;77.60;;;-142.21;100.00;112049.66;5093295;28;20442;-78
2021/12/28 01:20:17;;;;;;;7.80;2.80;;;12.00;77.40;;;-142.21;100.00;112049.66;5093714;28;20563;-78
2021/12/28 01:22:47;;;;;;;6.37;2.37;;;11.90;77.40;;;-142.21;100.00;112049.66;5093432;28;20844;-79
2021/12/28 01:25:19;;;;;;;11.33;2.50;;;11.80;77.70;;;-142.21;100.00;112049.66;5093761;28;20574;-78
2021/12/28 01:27:47;;;;;;;6.20;2.37;;;11.80;78.20;;;-142.21;100.00;112049.66;5093594;28;20856;-79
2021/12/28 01:30:19;;;;;;;7.93;2.93;;;11.80;77.90;;;-142.21;100.00;112049.66;5093451;28;20537;-79
2021/12/28 01:32:47;;;;;;;6.10;2.20;;;11.80;78.20;;;-142.21;100.00;112049.66;5092970;28;20466;-79
2021/12/28 01:35:18;;;;;;;6.40;2.30;;;11.80;77.60;;;-142.21;100.00;112049.66;5093399;28;20538;-79
2021/12/28 01:37:47;;;;;;;6.90;2.50;;;11.80;77.30;;;-142.21;100.00;112049.66;5092945;28;20570;-79
2021/12/28 01:40:23;;;;;;;5.30;2.63;;;11.80;77.20;;;-142.21;100.00;112049.66;5097517;28;20442;-79
2021/12/28 01:43:01;;;;;;;8.63;3.00;;;11.80;77.20;;;-142.21;100.00;112049.66;5113856;28;20445;-79
2021/12/28 01:45:41;;;;;;;8.13;2.97;;;11.80;77.00;;;-142.21;100.00;112049.66;5112527;28;20556;-78
2021/12/28 01:48:11;;;;;;;7.83;2.97;;;11.70;76.00;;;-142.21;100.00;112049.66;5111853;28;20436;-79
2021/12/28 01:50:40;;;;;;;8.37;3.00;;;11.60;76.60;;;-142.21;100.00;112049.66;5113833;28;20514;-79
2021/12/28 01:53:09;;;;;;;7.07;3.40;;;11.60;77.10;;;-142.21;100.00;112049.66;5110312;28;20524;-79
2021/12/28 01:55:42;;;;;;;6.73;3.00;;;11.50;77.10;;;-142.21;100.00;112049.66;5099778;28;20863;-78
2021/12/28 01:58:10;;;;;;;6.43;2.80;;;11.50;77.20;;;-142.21;100.00;112049.66;5112930;28;20462;-78
2021/12/28 02:00:39;;;;;;;4.90;2.80;;;11.50;76.90;;;-142.21;100.00;112049.66;5113645;28;20537;-78
2021/12/28 02:03:10;;;;;;;5.50;2.90;;;11.50;77.30;;;-142.21;100.00;112049.66;5112071;28;20446;-78
2021/12/28 02:05:39;;;;;;;8.67;2.90;;;11.50;77.20;;;-142.21;100.00;112049.66;5111926;28;20560;-79
2021/12/28 02:08:14;;;;;;;7.40;3.43;;;11.40;77.50;;;-142.21;100.00;112049.66;5112765;28;20452;-78
2021/12/28 02:10:45;;;;;;;8.03;3.40;;;11.40;77.60;;;-142.21;100.00;112049.66;5112926;28;20437;-79
2021/12/28 02:13:14;;;;;;;6.00;2.87;;;11.40;77.20;;;-142.21;100.00;112049.66;5113024;28;20466;-79
2021/12/28 02:15:42;;;;;;;7.90;3.50;;;11.50;77.30;;;-142.21;100.00;112049.66;5112182;28;20446;-78
2021/12/28 02:18:15;;;;;;;7.73;3.33;;;11.40;77.50;;;-142.21;100.00;112049.66;5107425;28;20470;-78
2021/12/28 02:20:44;;;;;;;7.13;3.27;;;11.30;77.70;;;-142.21;100.00;112049.66;5090359;28;21360;-78
2021/12/28 02:23:12;;;;;;;8.70;2.60;;;11.40;77.50;;;-142.21;100.00;112049.66;5093090;28;20837;-79
2021/12/28 02:25:40;;;;;;;7.17;2.83;;;11.40;77.50;;;-142.21;100.00;112049.66;5091839;28;20529;-79
2021/12/28 02:28:11;;;;;;;7.30;2.77;;;11.40;77.90;;;-142.21;100.00;112049.66;5094546;28;20807;-78
2021/12/28 02:30:42;;;;;;;8.43;3.50;;;11.40;77.90;;;-142.21;100.00;112049.66;5112034;28;20469;-78
2021/12/28 02:33:10;;;;;;;5.80;2.50;;;11.40;77.80;;;-142.21;100.00;112049.66;5113319;28;20445;-78
2021/12/28 02:35:38;;;;;;;7.77;2.80;;;11.40;78.20;;;-142.21;100.00;112049.66;5092550;28;21046;-78
2021/12/28 02:38:09;;;;;;;7.17;3.03;;;11.40;78.20;;;-142.21;100.00;112049.66;5097854;28;20513;-79
2021/12/28 02:40:41;;;;;;;5.27;2.77;;;11.30;77.40;;;-142.21;100.00;112049.66;5112935;28;20829;-77
2021/12/28 02:43:13;;;;;;;6.90;3.20;;;11.30;77.60;;;-142.21;100.00;112049.66;5100204;28;20815;-78
2021/12/28 02:45:48;;;;;;;5.37;3.07;;;11.30;77.30;;;-142.21;100.00;112049.66;5111670;28;20554;-78
2021/12/28 02:48:15;;;;;;;5.83;3.53;;;11.30;77.70;;;-142.21;100.00;112049.66;5113023;28;20449;-79
2021/12/28 02:50:51;;;;;;;7.90;3.50;;;11.30;77.30;;;-142.21;100.00;112049.66;5112781;28;20508;-78
2021/12/28 02:53:21;;;;;;;7.17;3.77;;;11.20;77.70;;;-142.21;100.00;112049.66;5112810;28;20432;-78
2021/12/28 02:55:50;;;;;;;7.60;3.67;;;11.30;77.70;;;-142.21;100.00;112049.66;5109085;28;20569;-78
2021/12/28 02:58:31;;;;;;;7.17;3.87;;;11.20;77.50;;;-142.21;100.00;112049.66;5093686;28;20427;-78
2021/12/28 03:01:08;;;;;;;9.17;3.93;;;11.20;78.00;;;-142.21;100.00;112049.66;5095609;28;20513;-78
2021/12/28 03:03:37;;;;;;;7.47;3.93;;;11.20;77.70;;;-142.21;100.00;112049.66;5096521;28;20430;-78
2021/12/28 03:06:08;;;;;;;8.10;3.73;;;11.20;77.70;;;-142.21;100.00;112049.66;5095802;28;20481;-78
2021/12/28 03:08:43;;;;;;;5.33;3.50;;;11.20;77.70;;;-142.21;100.00;112049.66;5112438;28;20513;-78
2021/12/28 03:11:11;;;;;;;9.07;3.90;;;11.20;78.00;;;-142.21;100.00;112049.66;5115939;28;20433;-78
2021/12/28 03:13:43;;;;;;;7.63;4.13;;;11.20;78.00;;;-142.21;100.00;112049.66;5116402;28;20528;-78
2021/12/28 03:16:11;;;;;;;7.57;4.13;;;11.20;77.90;;;-142.21;100.00;112049.66;5106102;28;20466;-78
2021/12/28 03:18:39;;;;;;;10.60;4.33;;;11.20;78.00;;;-142.21;100.00;112049.66;5096262;28;20485;-77
2021/12/28 03:21:09;;;;;;;6.03;3.87;;;11.20;77.60;;;-142.21;100.00;112049.66;5113088;28;20868;-78
2021/12/28 03:23:39;;;;;;;10.17;4.50;;;11.20;78.00;;;-142.21;100.00;112049.66;5116050;28;20550;-78
2021/12/28 03:26:07;;;;;;;6.87;3.53;;;11.20;78.00;;;-142.21;100.00;112049.66;5115992;28;20573;-78
2021/12/28 03:28:40;;;;;;;5.83;3.33;;;11.20;78.10;;;-142.21;100.00;112049.66;5116342;28;20469;-78
2021/12/28 03:31:11;;;;;;;7.60;3.60;;;11.20;77.90;;;-142.21;100.00;112049.66;5095989;28;20475;-79
2021/12/28 03:33:41;;;;;;;8.13;3.80;;;11.10;78.00;;;-142.21;100.00;112049.66;5115729;28;20445;-79
2021/12/28 03:36:09;;;;;;;13.10;4.23;;;11.20;78.10;;;-142.21;100.00;112049.66;5116503;28;20500;-78
2021/12/28 03:38:41;;;;;;;7.77;3.80;;;11.10;77.80;;;-142.21;100.00;112049.66;5115144;28;20473;-79
2021/12/28 03:41:11;;;;;;;7.07;3.50;;;11.20;78.20;;;-142.21;100.00;112049.66;5115946;28;20521;-79
2021/12/28 03:43:42;;;;;;;8.20;3.97;;;11.10;77.90;;;-142.21;100.00;112049.66;5115014;28;20980;-79
2021/12/28 03:46:10;;;;;;;4.93;3.27;;;11.20;77.80;;;-142.21;100.00;112049.66;5116350;28;20826;-78
2021/12/28 03:48:40;;;;;;;9.27;3.70;;;11.10;77.90;;;-142.21;100.00;112049.66;5115300;28;20445;-78
2021/12/28 03:51:08;;;;;;;6.70;3.77;;;11.10;77.90;;;-142.21;100.00;112049.66;5116491;28;20476;-78
2021/12/28 03:53:37;;;;;;;10.70;4.33;;;11.20;77.70;;;-142.21;100.00;112049.66;5113724;28;20529;-78
2021/12/28 03:56:09;;;;;;;6.93;3.43;;;11.20;77.80;;;-142.21;100.00;112049.66;5115923;28;20451;-77
2021/12/28 03:58:37;;;;;;;6.50;3.50;;;11.20;77.70;;;-142.21;100.00;112049.66;5115543;28;20472;-78
2021/12/28 04:01:05;;;;;;;9.67;3.80;;;11.20;77.30;;;-142.21;100.00;112049.66;5115868;28;20528;-78
2021/12/28 04:03:32;;;;;;;6.17;3.30;;;11.20;77.60;;;-142.21;100.00;112049.66;5115726;28;20449;-79
2021/12/28 04:06:07;;;;;;;7.40;3.37;;;11.20;77.60;;;-142.21;100.00;112049.66;5115922;28;20887;-78
2021/12/28 04:08:35;;;;;;;11.10;3.90;;;11.20;77.80;;;-142.21;100.00;112049.66;5115410;28;20459;-78
2021/12/28 04:11:15;;;;;;;8.33;3.73;;;11.20;78.00;;;-142.21;100.00;112049.66;5114729;28;20477;-79
2021/12/28 04:13:44;;;;;;;5.33;2.97;;;11.20;78.10;;;-142.21;100.00;112049.66;5115136;28;20835;-79
2021/12/28 04:16:19;;;;;;;7.60;3.90;;;11.30;78.30;;;-142.21;100.00;112049.66;5115288;28;20492;-79
2021/12/28 04:18:47;;;;;;;8.10;3.40;;;11.30;78.00;;;-142.21;100.00;112049.66;5114996;28;20478;-79
2021/12/28 04:21:15;;;;;;;5.87;3.10;;;11.30;77.90;;;-142.21;100.00;112049.66;5115129;28;20484;-79
2021/12/28 04:23:43;;;;;;;6.43;3.77;;;11.30;77.90;;;-142.21;100.00;112049.66;5115285;28;20445;-79
2021/12/28 04:26:12;;;;;;;8.97;4.10;;;11.30;78.20;;;-142.21;100.00;112049.66;5114059;28;20580;-79
2021/12/28 04:28:41;;;;;;;5.70;4.13;;;11.30;78.20;;;-142.21;100.00;112049.66;5115009;28;20528;-78
2021/12/28 04:31:09;;;;;;;5.17;3.73;;;11.40;78.30;;;-142.21;100.00;112049.66;5114625;28;20449;-78
2021/12/28 04:33:37;;;;;;;7.37;3.53;;;11.40;78.00;;;-142.21;100.00;112049.66;5115436;28;20468;-79
2021/12/28 04:36:08;;;;;;;5.23;3.47;;;11.40;78.00;;;-142.21;100.00;112049.66;5114329;28;20993;-78
2021/12/28 04:38:36;;;;;;;6.23;3.10;;;11.40;78.20;;;-142.21;100.00;112049.66;5114910;28;20568;-78
2021/12/28 04:41:04;;;;;;;4.63;3.13;;;11.40;78.00;;;-142.21;100.00;112049.66;5105230;28;21056;-79
2021/12/28 04:43:40;;;;;;;6.63;2.93;;;11.40;78.20;;;-142.21;100.00;112049.66;5089776;28;20469;-78
2021/12/28 04:46:08;;;;;;;5.47;2.40;;;11.40;78.30;;;-142.21;100.00;112049.66;5086001;28;20466;-78
2021/12/28 04:48:36;;;;;;;5.13;3.00;;;11.50;78.10;;;-142.21;100.00;112049.66;5094641;28;20938;-78
2021/12/28 04:51:03;;;;;;;5.00;3.13;;;11.50;78.30;;;-142.21;100.00;112049.66;5094247;28;20530;-78
2021/12/28 04:53:33;;;;;;;8.27;3.57;;;11.50;78.30;;;-142.21;100.00;112049.66;5094133;28;20537;-77
2021/12/28 04:56:01;;;;;;;6.77;3.27;;;11.50;78.20;;;-142.21;100.00;112049.66;5101919;28;20449;-78
2021/12/28 04:58:28;;;;;;;6.20;3.53;;;11.50;78.20;;;-142.21;100.00;112049.66;5113923;28;20460;-78
2021/12/28 05:01:03;;;;;;;4.97;2.93;;;11.50;78.00;;;-142.21;100.00;112049.66;5114273;28;20601;-77
2021/12/28 05:03:30;;;;;;;8.90;3.00;;;11.50;78.20;;;-142.21;100.00;112049.66;5113696;28;20924;-77
2021/12/28 05:05:58;;;;;;;5.43;2.40;;;11.40;78.30;;;-142.21;100.00;112049.66;5114101;28;20442;-78
2021/12/28 05:08:25;;;;;;;7.60;3.10;;;11.40;78.60;;;-142.21;100.00;112049.66;5113796;28;20993;-78
2021/12/28 05:10:54;;;;;;;5.33;2.77;;;11.40;79.30;;;-142.21;100.00;112049.66;5073353;28;20443;-78
2021/12/28 05:13:23;;;;;;;7.00;2.60;;;11.40;80.20;;;-142.21;100.00;112049.66;5075502;28;20529;-78
2021/12/28 05:15:53;;;;;;;6.03;2.47;;;11.40;79.90;;;-142.21;100.00;112049.66;5093272;28;20939;-78
2021/12/28 05:18:22;;;;;;;7.20;2.63;;;11.50;80.00;;;-142.21;100.00;112049.66;5094136;28;20539;-77
2021/12/28 05:20:49;;;;;;;4.73;2.17;;;11.60;80.00;;;-142.21;100.00;112049.66;5093824;28;20469;-78
2021/12/28 05:23:16;;;;;;;4.23;2.10;;;11.60;80.30;;;-142.21;100.00;112049.66;5093689;28;20538;-78
2021/12/28 05:25:44;;;;;;;3.83;1.90;;;11.70;80.00;;;-142.21;100.00;112049.66;5092793;28;20438;-78
2021/12/28 05:28:13;;;;;;;4.53;1.90;;;11.80;80.80;;;-142.21;100.00;112049.66;5093634;28;20482;-79
2021/12/28 05:30:46;;;;;;;7.60;2.40;;;11.80;81.10;;;-142.21;100.00;112049.66;5092491;28;20439;-78
2021/12/28 05:33:13;;;;;;;4.20;2.00;;;11.90;81.70;;;-142.21;100.00;112049.66;5094169;28;20462;-78
2021/12/28 05:35:42;;;;;;;6.37;2.10;;;12.00;81.10;;;-142.21;100.00;112049.66;5084110;28;21028;-78
2021/12/28 05:38:12;;;;;;;4.50;2.07;;;12.00;81.50;;;-142.21;100.00;112049.66;5100532;28;20509;-79
2021/12/28 05:40:39;;;;;;;5.60;2.23;;;12.00;81.70;;;-142.21;100.00;112049.66;5113457;28;20446;-77
2021/12/28 05:43:06;;;;;;;7.60;2.23;;;12.00;82.30;;;-142.21;100.00;112049.66;5113760;28;20456;-78
2021/12/28 05:45:34;;;;;;;7.23;2.10;;;12.00;82.70;;;-142.21;100.00;112049.66;5114145;28;20552;-78
2021/12/28 05:48:02;;;;;;;6.30;2.27;;;11.90;82.90;;;-142.21;100.00;112049.66;5112799;28;20985;-79
2021/12/28 05:50:30;;;;;;;4.73;1.97;;;12.00;83.20;;;-142.21;100.00;112049.66;5113280;28;20478;-78
2021/12/28 05:52:59;;;;;;;4.60;2.37;;;12.00;83.20;;;-142.21;100.00;112049.66;5112698;28;20528;-78
2021/12/28 05:55:26;;;;;;;6.17;1.97;;;12.10;83.00;;;-142.21;100.00;112049.66;5113432;28;20450;-78
2021/12/28 05:57:53;;;;;;;7.30;2.30;;;12.20;82.30;;;-142.21;100.00;112049.66;5112682;28;20495;-78
2021/12/28 06:00:21;;;;;;;5.63;2.00;;;12.20;82.00;;;-142.21;100.00;112049.66;5113762;28;20441;-78
2021/12/28 06:02:48;;;;;;;5.80;2.10;;;12.30;82.00;;;-142.21;100.00;112049.66;5113314;28;20484;-78
2021/12/28 06:05:17;;;;;;;3.13;1.80;;;12.30;81.60;;;-142.21;100.00;112049.66;5112725;28;20533;-79
2021/12/28 06:07:44;;;;;;;5.20;1.93;;;12.30;82.00;;;-142.21;100.00;112049.66;5113349;28;20491;-79
2021/12/28 06:10:15;;;;;;;4.23;1.97;;;12.20;82.20;;;-142.21;100.00;112049.66;5103321;28;20486;-79
2021/12/28 06:12:42;;;;;;;5.77;2.33;;;12.20;83.00;;;-142.21;100.00;112049.66;5093878;28;20430;-78
2021/12/28 06:15:10;;;;;;;3.37;1.80;;;12.10;83.00;;;-142.21;100.00;112049.66;5112740;28;20426;-78
2021/12/28 06:17:38;;;;;;;4.97;1.70;;;12.20;82.80;;;-142.21;100.00;112049.66;5093324;28;20513;-78
2021/12/28 06:20:07;;;;;;;5.20;1.97;;;12.30;82.30;;;-142.21;100.00;112049.66;5112604;28;20451;-77
2021/12/28 06:22:35;;;;;;;4.20;1.73;;;12.30;82.30;;;-142.21;100.00;112049.66;5112808;28;20529;-78
2021/12/28 06:25:02;;;;;;;3.27;1.70;;;12.40;82.20;;;-142.21;100.00;112049.66;5112838;28;20990;-77
2021/12/28 06:27:30;;;;;;;3.60;1.70;;;12.40;82.00;;;-142.21;100.00;112049.66;5112617;28;20595;-79
2021/12/28 06:29:58;;;;;;;2.93;1.47;;;12.50;81.80;;;-142.21;100.00;112049.66;5107798;28;20502;-78
2021/12/28 06:32:25;;;;;;;3.00;1.50;;;12.60;81.70;;;-142.21;100.00;112049.66;5112360;28;20536;-79
2021/12/28 06:34:52;;;;;;;2.60;1.40;;;12.60;81.40;;;-142.21;100.00;112049.66;5112505;28;20522;-79
2021/12/28 06:37:19;;;;;;;3.50;1.60;;;12.60;81.50;;;-142.21;100.00;112049.66;5111647;28;20500;-77
2021/12/28 06:39:47;;;;;;;2.30;1.60;;;12.60;81.40;;;-142.21;100.00;112049.66;5112969;28;20840;-78
2021/12/28 06:42:14;;;;;;;2.90;1.50;;;12.50;81.40;;;-142.21;100.00;112049.66;5112536;28;20537;-78
2021/12/28 06:44:45;;;;;;;2.27;1.40;;;12.50;81.30;;;-142.21;100.00;112049.66;5112025;28;20453;-78
2021/12/28 06:47:12;;;;;;;2.50;1.50;;;12.60;81.20;;;-142.21;100.00;112049.66;5112683;28;20558;-78
2021/12/28 06:49:39;;;;;;;2.47;1.50;;;12.50;81.60;;;-142.21;100.00;112049.66;5112006;28;20477;-78
2021/12/28 06:52:07;;;;;;;3.53;1.50;;;12.50;81.70;;;-142.21;100.00;112049.66;5112452;28;20477;-78
2021/12/28 06:54:37;;;;;;;2.77;1.50;;;12.50;81.90;;;-142.21;100.00;112049.66;5112414;28;20481;-77
2021/12/28 06:57:07;;;;;;;1.80;1.03;;;12.50;81.90;;;-142.21;100.00;112049.66;5112824;28;20454;-78
2021/12/28 06:59:35;;;;;;;2.93;1.43;;;12.50;82.10;;;-142.21;100.00;112049.66;5112624;28;20450;-78
2021/12/28 07:02:04;;;;;;;2.43;1.23;;;12.50;81.60;;;-142.21;100.00;112049.66;5112354;28;20449;-77
2021/12/28 07:04:33;;;;;;;4.83;1.50;;;12.60;81.90;;;-142.21;100.00;112049.66;5112667;28;20525;-79
2021/12/28 07:07:00;;;;;;;2.47;1.13;;;12.50;82.40;;;-142.21;100.00;112049.66;5111485;28;21012;-79
2021/12/28 07:09:27;;;;;;;3.13;1.53;;;12.60;82.50;;;-142.21;100.00;112049.66;5113129;28;20442;-79
2021/12/28 07:11:54;;;;;;;3.37;1.57;;;12.60;81.70;;;-142.21;100.00;112049.66;5111625;28;20996;-78
2021/12/28 07:14:22;;;;;;;4.33;1.60;;;12.60;81.60;;;-142.21;100.00;112049.66;5112672;28;20750;-79
2021/12/28 07:16:49;;;;;;;2.17;1.33;;;12.60;81.70;;;-142.21;100.00;112049.66;5111978;28;20529;-79
2021/12/28 07:19:17;;;;;;;2.13;1.67;;;12.60;81.70;;;-142.21;100.00;112049.66;5112685;28;20528;-79
2021/12/28 07:21:45;;;;;;;2.93;1.80;;;12.60;81.70;;;-142.21;100.00;112049.66;5090922;28;20453;-79
2021/12/28 07:24:13;;;;;;;3.30;1.73;;;12.60;81.70;;;-142.21;100.00;112049.66;5091735;28;20529;-79
2021/12/28 07:26:41;;;;;;;4.70;1.40;;;12.50;81.70;;;-142.21;100.00;112049.66;5097536;28;20462;-79
2021/12/28 07:29:08;;;;;;;5.80;1.90;;;12.50;82.50;;;-142.21;100.00;112049.66;5111643;28;20476;-79
2021/12/28 07:31:35;;;;;;;3.23;1.57;;;12.50;82.40;;;-142.21;100.00;112049.66;5112491;28;20473;-79
2021/12/28 07:34:03;;;;;;;3.53;1.70;;;12.50;82.10;;;-142.21;100.00;112049.66;5112197;28;20532;-79
2021/12/28 07:36:32;;;;;;;5.30;1.90;;;12.60;82.10;;;-142.21;100.00;112049.66;5091766;28;20792;-79
2021/12/28 07:39:00;;;;;;;4.67;1.90;;;12.50;82.50;;;-142.21;100.00;112049.66;5091519;28;20470;-79
2021/12/28 07:41:28;;;;;;;2.70;1.80;;;12.50;82.60;;;-142.21;100.00;112049.66;5111426;28;20473;-79
2021/12/28 07:43:55;;;;;;;3.83;1.97;;;12.50;82.90;;;-142.21;100.00;112049.66;5112174;28;20481;-79
2021/12/28 07:46:22;;;;;;;1.47;0.77;;;12.40;83.50;;;-142.21;100.00;112049.66;5114262;28;20529;-80
2021/12/28 07:48:50;;;;;;;1.57;1.43;;;12.50;84.20;;;-142.21;100.00;112049.66;5115611;28;20481;-79
2021/12/28 07:51:17;;;;;;;0.80;0.80;;;12.50;85.10;;;-142.21;100.00;112049.66;5115815;28;20537;-79
2021/12/28 07:53:46;;;;;;;0.60;0.60;;;12.60;84.90;;;-142.21;100.00;112049.66;5095334;28;20447;-79
2021/12/28 07:56:14;;;;;;;2.07;1.70;;;12.70;85.00;;;-142.21;100.00;112049.66;5095421;28;20460;-79
2021/12/28 07:58:41;;;;;;;1.73;1.60;;;12.70;85.10;;;-142.21;100.00;112049.66;5094652;28;20479;-79
2021/12/28 08:01:08;;;;;;;1.43;1.30;;;12.80;85.80;;;-142.21;100.00;112049.66;5095457;28;20827;-79
2021/12/28 08:03:35;;;;;;;0.93;0.93;;;12.90;84.90;;;-142.21;100.00;112049.66;5094617;28;20503;-78
2021/12/28 08:06:03;;;;;;;1.00;0.90;;;12.90;84.90;;;-142.21;100.00;112049.66;5095049;28;20450;-79
2021/12/28 08:08:30;;;;;;;1.73;1.17;;;13.00;85.00;;;-142.21;100.00;112049.66;5094361;28;20482;-78
2021/12/28 08:10:59;;;;;;;0.60;0.60;;;13.00;84.90;;;-142.21;100.00;112049.66;5095368;28;20446;-78
2021/12/28 08:13:26;;;;;;;0.93;0.70;;;13.00;85.20;;;-142.21;100.00;112049.66;5095050;28;20537;-79
2021/12/28 08:15:55;;;;;;;0.77;0.77;;;13.00;85.30;;;-142.21;100.00;112049.66;5094398;28;20446;-80
2021/12/28 08:18:22;;;;;;;0.70;0.60;;;12.90;85.70;;;-142.21;100.00;112049.66;5095146;28;20439;-79
2021/12/28 08:20:49;;;;;;;2.07;0.77;;;13.00;85.80;;;-142.21;100.00;112049.66;5095636;28;20454;-79
2021/12/28 08:23:17;;;;;;;1.83;0.63;;;13.10;85.70;;;-142.21;100.00;112049.66;5115508;28;20477;-79
2021/12/28 08:25:44;;;;;;;1.00;0.77;;;13.10;85.30;;;-142.21;100.00;112049.66;5079273;28;20848;-79
2021/12/28 08:28:13;;;;;;;2.03;0.73;;;13.20;85.00;;;-142.21;100.00;112049.66;5109787;28;20802;-79
2021/12/28 08:30:40;;;;;;;0.70;0.60;;;13.20;85.00;;;-142.21;100.00;112049.66;5114993;28;20442;-79
2021/12/28 08:33:10;;;;;;;0.87;0.77;;;13.20;84.80;;;-142.21;100.00;112049.66;5114572;28;20449;-78
2021/12/28 08:35:40;;;;;;;0.80;0.77;;;13.30;85.00;;;-142.21;100.00;112049.66;5115705;28;20751;-78
2021/12/28 08:38:08;;;;;;;0.60;0.60;;;13.40;84.60;;;-142.21;100.00;112049.66;5114405;28;20505;-79
2021/12/28 08:40:36;;;;;;;0.70;0.70;;;13.50;84.20;;;-142.21;100.00;112049.66;5115471;28;20529;-80
2021/12/28 08:43:04;;;;;;;1.00;0.90;;;13.60;83.80;;;-142.21;100.00;112049.66;5114544;28;20488;-77
2021/12/28 08:45:33;;;;;;;0.50;0.50;;;13.70;84.20;;;-142.21;100.00;112049.66;5114935;28;20437;-76
2021/12/28 08:48:01;;;;;;;0.80;0.80;;;13.70;83.60;;;-142.21;100.00;112049.66;5114607;28;20560;-76
2021/12/28 08:50:29;;;;;;;0.57;0.57;;;13.80;83.20;;;-142.21;100.00;112049.66;5115323;28;20438;-75
2021/12/28 08:52:56;;;;;;;0.53;0.53;;;13.70;83.60;;;-142.21;100.00;112049.66;5114970;28;20454;-78
2021/12/28 08:55:25;;;;;;;0.60;0.60;;;13.70;83.90;;;-142.21;100.00;112049.66;5113923;28;20454;-79
2021/12/28 08:57:53;;;;;;;0.50;0.50;;;13.50;85.00;;;-142.21;100.00;112049.66;5114042;28;20949;-80
2021/12/28 09:00:25;;;;;;;0.70;0.70;;;13.60;84.80;;;-142.21;100.00;112049.66;5113864;28;20537;-78
2021/12/28 09:02:56;;;;;;;0.50;0.50;;;13.60;85.10;;;-142.21;100.00;112049.66;5114505;28;20483;-79
2021/12/28 09:05:26;;;;;;;0.70;0.70;;;13.70;85.00;;;-142.21;100.00;112049.66;5114039;28;20512;-79
2021/12/28 09:07:54;;;;;;;0.60;0.60;;;13.60;85.30;;;-142.21;100.00;112049.66;5114112;28;21058;-79
2021/12/28 09:10:24;;;;;;;1.10;0.77;;;13.70;85.70;;;-142.21;100.00;112049.66;5114072;28;20484;-79
2021/12/28 09:12:51;;;;;;;0.73;0.70;;;13.70;85.00;;;-142.21;100.00;112049.66;5113890;28;20469;-80
2021/12/28 09:15:18;;;;;;;0.60;0.60;;;13.70;85.30;;;-142.21;100.00;112049.66;5114023;28;20503;-79
2021/12/28 09:17:46;;;;;;;1.80;0.60;;;13.70;85.30;;;-142.21;100.00;112049.66;5114179;28;20492;-79
2021/12/28 09:20:19;;;;;;;0.80;0.77;;;13.70;85.50;;;-142.21;100.00;112049.66;5114270;28;20859;-78
2021/12/28 09:22:47;;;;;;;0.73;0.73;;;13.70;85.80;;;-142.21;100.00;112049.66;5114369;28;20842;-80
2021/12/28 09:25:17;;;;;;;0.60;0.60;;;13.80;85.70;;;-142.21;100.00;112049.66;5114283;28;20450;-79
2021/12/28 09:27:45;;;;;;;0.97;0.80;;;13.80;85.60;;;-142.21;100.00;112049.66;5112190;28;21009;-78
2021/12/28 09:30:14;;;;;;;1.53;0.70;;;13.90;85.40;;;-142.21;100.00;112049.66;5114241;28;20941;-78
2021/12/28 09:33:24;;;;;;;0.70;0.70;;;14.10;85.20;;;-142.21;100.00;112049.66;5113697;28;20528;-79
2021/12/28 09:36:14;;;;;;;0.47;0.47;;;14.10;84.30;;;-142.21;100.00;112049.66;5106379;28;20492;-78
2021/12/28 09:38:43;;;;;;;1.13;0.60;;;14.10;83.80;;;-142.21;100.00;112049.66;5113147;28;20903;-78
2021/12/28 09:41:11;;;;;;;0.93;0.73;;;14.10;83.90;;;-142.21;100.00;112049.66;5112720;28;20521;-78
2021/12/28 09:43:39;;;;;;;0.83;0.70;;;14.10;83.60;;;-142.21;100.00;112049.66;5113420;28;20865;-79
2021/12/28 09:46:07;;;;;;;0.50;0.50;;;14.10;83.40;;;-142.21;100.00;112049.66;5113683;28;20532;-79
2021/12/28 09:48:48;;;;;;;0.53;0.53;;;14.20;84.30;;;-142.21;100.00;112049.66;5112831;28;20485;-79
2021/12/28 09:51:22;;;;;;;1.80;0.83;;;14.30;84.10;;;-142.21;100.00;112049.66;5112715;28;20470;-79
2021/12/28 09:54:08;;;;;;;1.20;0.53;;;14.30;82.90;;;-142.21;100.00;112049.66;5113331;28;20422;-80
2021/12/28 09:56:36;;;;;;;1.00;0.80;;;14.30;82.30;;;-142.21;100.00;112049.66;5113278;28;20544;-80
2021/12/28 09:59:04;;;;;;;0.70;0.70;;;14.40;82.60;;;-142.21;100.00;112049.66;5112979;28;20445;-79
2021/12/28 10:01:31;;;;;;;1.03;0.90;;;14.50;82.40;;;-142.21;100.00;112049.66;5113536;28;20491;-79